Time;durP1;ratioP1;P1;durP2;ratioP2;P2;SDS_P1;SDS_P2;PMS_P1;PMS_P2;Temp;Humidity;BMP_temperature;BMP_pressure;BME280_temperature;BME280_humidity;BME280_pressure;Samples;Min_cycle;Max_cycle;Signal;HPM_P1;HPM_P2
2022/04/25 00:01:11;;;;;;;10.63;7.50;;;;;;;18.79;54.99;93862.28;5072574;28;20979;-76
2022/04/25 00:03:37;;;;;;;14.53;8.67;;;;;;;18.71;55.37;93857.50;5086015;28;20428;-76
2022/04/25 00:06:06;;;;;;;11.37;9.10;;;;;;;18.72;54.99;93856.44;5077552;28;20232;-76
2022/04/25 00:08:42;;;;;;;16.97;8.33;;;;;;;18.62;55.51;93859.09;5064397;28;20415;-76
2022/04/25 00:11:13;;;;;;;13.40;8.07;;;;;;;18.30;56.43;93866.19;5073104;28;20440;-76
2022/04/25 00:13:44;;;;;;;13.60;8.57;;;;;;;18.16;57.17;93864.31;5061392;28;20537;-76
2022/04/25 00:16:10;;;;;;;11.73;7.60;;;;;;;18.23;56.57;93865.66;5074209;28;20440;-76
2022/04/25 00:18:35;;;;;;;11.40;8.70;;;;;;;18.10;56.35;93866.94;5070838;28;20408;-76
2022/04/25 00:21:01;;;;;;;12.43;8.17;;;;;;;18.19;56.50;93859.25;5084415;28;20184;-76
2022/04/25 00:23:26;;;;;;;11.30;8.20;;;;;;;18.19;56.75;93869.84;5066390;28;20182;-77
2022/04/25 00:25:52;;;;;;;11.63;8.23;;;;;;;18.29;55.79;93867.25;5074836;28;20229;-76
2022/04/25 00:28:17;;;;;;;13.80;7.47;;;;;;;18.16;56.09;93866.97;5065178;28;20196;-76
2022/04/25 00:30:43;;;;;;;11.07;7.93;;;;;;;17.67;58.09;93871.50;5065714;28;20170;-76
2022/04/25 00:33:08;;;;;;;13.10;8.00;;;;;;;17.86;57.02;93865.78;5084061;28;20715;-77
2022/04/25 00:35:34;;;;;;;12.90;7.37;;;;;;;17.85;57.16;93870.28;5083529;28;20237;-76
2022/04/25 00:37:59;;;;;;;10.43;7.30;;;;;;;18.22;55.79;93864.06;5084298;28;20182;-76
2022/04/25 00:40:25;;;;;;;14.10;7.30;;;;;;;17.91;55.75;93860.53;5061105;28;20573;-76
2022/04/25 00:42:51;;;;;;;11.70;6.63;;;;;;;17.93;56.01;93858.41;5056914;28;20647;-76
2022/04/25 00:45:17;;;;;;;12.30;8.37;;;;;;;18.22;55.13;93861.41;5066345;28;20449;-77
2022/04/25 00:47:44;;;;;;;16.53;7.20;;;;;;;18.22;55.00;93858.75;5065159;28;20240;-77
2022/04/25 00:50:11;;;;;;;14.40;7.40;;;;;;;18.24;55.01;93864.59;5070263;28;20452;-76
2022/04/25 00:52:37;;;;;;;9.70;6.93;;;;;;;18.26;55.08;93853.72;5073439;28;20490;-76
2022/04/25 00:55:06;;;;;;;8.77;6.20;;;;;;;18.59;53.50;93852.47;5064695;28;20520;-77
2022/04/25 00:57:32;;;;;;;10.70;6.73;;;;;;;18.34;54.29;93848.72;5071610;28;20182;-77
2022/04/25 00:59:58;;;;;;;11.93;7.10;;;;;;;18.23;54.64;93847.13;5063801;28;20488;-76
2022/04/25 01:02:28;;;;;;;16.33;6.87;;;;;;;18.06;55.37;93843.88;5071780;28;20190;-77
2022/04/25 01:04:57;;;;;;;17.03;7.40;;;;;;;18.05;55.58;93834.34;5084905;28;20743;-77
2022/04/25 01:07:23;;;;;;;15.60;9.20;;;;;;;18.13;55.19;93831.97;5049701;28;20433;-77
2022/04/25 01:09:48;;;;;;;15.57;7.00;;;;;;;18.23;54.30;93827.75;5067160;28;20409;-77
2022/04/25 01:12:14;;;;;;;20.57;7.43;;;;;;;18.09;54.87;93832.78;5062098;28;20496;-77
2022/04/25 01:14:39;;;;;;;12.73;7.10;;;;;;;18.33;53.78;93825.16;5069571;28;20173;-77
2022/04/25 01:17:06;;;;;;;12.00;6.77;;;;;;;18.48;53.85;93821.72;5088001;28;20221;-77
2022/04/25 01:19:31;;;;;;;11.07;7.47;;;;;;;18.45;54.09;93820.38;5087555;28;20169;-76
2022/04/25 01:22:16;;;;;;;19.10;6.57;;;;;;;18.43;53.66;93811.91;5085398;28;20565;-76
2022/04/25 01:27:26;;;;;;;10.83;6.33;;;;;;;17.84;55.00;93812.28;5067500;28;20527;-76
2022/04/25 01:29:53;;;;;;;12.67;7.20;;;;;;;17.93;55.29;93808.13;5067455;28;20431;-77
2022/04/25 01:32:21;;;;;;;14.53;7.13;;;;;;;17.88;55.19;93794.84;5075208;28;20500;-77
2022/04/25 01:34:46;;;;;;;14.47;7.60;;;;;;;17.88;55.19;93794.84;5067719;28;20833;-76
2022/04/25 01:37:14;;;;;;;15.73;7.13;;;;;;;17.89;55.09;93791.13;5080109;28;20479;-77
2022/04/25 01:39:48;;;;;;;16.00;6.60;;;;;;;17.88;55.78;93792.22;5080482;28;20424;-77
2022/04/25 01:42:14;;;;;;;12.40;7.17;;;;;;;18.13;54.32;93792.25;5049280;28;21005;-77
2022/04/25 01:44:41;;;;;;;12.80;6.60;;;;;;;17.88;55.14;93794.84;5079202;28;20470;-77
2022/04/25 01:47:07;;;;;;;16.33;7.00;;;;;;;17.91;55.56;93799.66;5092936;28;20839;-76
2022/04/25 01:49:38;;;;;;;11.40;6.33;;;;;;;17.81;55.88;93796.91;5066399;28;20421;-77
2022/04/25 01:52:27;;;;;;;15.17;6.30;;;;;;;17.88;55.24;93806.22;5064107;28;20454;-77
2022/04/25 01:54:53;;;;;;;14.90;6.37;;;;;;;17.95;54.92;93800.72;5086562;28;20468;-78
2022/04/25 01:57:19;;;;;;;14.20;7.80;;;;;;;17.95;54.89;93801.50;5082300;28;20426;-76
2022/04/25 01:59:45;;;;;;;11.60;6.60;;;;;;;18.06;55.13;93794.38;5073213;28;20217;-77
2022/04/25 02:02:11;;;;;;;20.27;7.37;;;;;;;18.29;53.71;93779.06;5094711;28;20181;-77
2022/04/25 02:04:38;;;;;;;11.83;6.10;;;;;;;18.03;54.72;93780.88;5067402;28;20218;-77
2022/04/25 02:07:05;;;;;;;15.40;6.67;;;;;;;17.29;56.81;93783.50;5066833;28;20416;-78
2022/04/25 02:09:30;;;;;;;18.57;6.70;;;;;;;17.42;56.89;93778.81;5079947;28;20428;-76
2022/04/25 02:11:56;;;;;;;10.10;7.23;;;;;;;17.78;55.68;93771.00;5072737;28;20488;-77
2022/04/25 02:14:21;;;;;;;12.10;5.70;;;;;;;17.56;55.86;93774.59;5076540;28;20587;-76
2022/04/25 02:16:47;;;;;;;16.23;6.60;;;;;;;17.24;57.11;93775.53;5086765;28;20205;-76
2022/04/25 02:19:12;;;;;;;12.23;7.23;;;;;;;17.36;56.51;93776.13;5068371;28;20209;-77
2022/04/25 02:21:38;;;;;;;18.33;6.43;;;;;;;17.47;56.20;93787.56;5048996;28;20182;-77
2022/04/25 02:24:03;;;;;;;11.33;6.00;;;;;;;17.45;56.12;93794.13;5066138;28;20194;-78
2022/04/25 02:26:29;;;;;;;8.70;5.83;;;;;;;17.65;55.63;93788.94;5074075;28;20197;-77
2022/04/25 02:28:54;;;;;;;10.70;5.17;;;;;;;17.75;55.38;93783.66;5054711;28;20664;-77
2022/04/25 02:31:20;;;;;;;13.50;6.20;;;;;;;17.53;56.32;93780.44;5077313;28;20266;-77
2022/04/25 02:33:46;;;;;;;15.73;6.77;;;;;;;17.58;55.90;93788.38;5086218;28;20182;-75
2022/04/25 02:36:12;;;;;;;20.03;8.33;;;;;;;17.78;55.23;93789.50;5073623;28;20314;-76
2022/04/25 02:38:39;;;;;;;17.60;6.50;;;;;;;16.77;58.30;93795.59;5072154;28;20190;-76
2022/04/25 02:41:05;;;;;;;12.47;6.43;;;;;;;17.09;57.30;93789.47;5066637;28;20420;-77
2022/04/25 02:43:49;;;;;;;25.83;8.10;;;;;;;17.18;57.31;93790.56;5075280;28;20425;-76
2022/04/25 02:46:16;;;;;;;10.07;6.07;;;;;;;17.51;56.40;93777.22;5051644;28;20627;-76
2022/04/25 02:48:44;;;;;;;15.60;6.93;;;;;;;17.21;56.70;93773.41;5047556;28;20812;-77
2022/04/25 02:51:11;;;;;;;15.23;8.73;;;;;;;16.73;58.08;93759.34;5051083;28;20435;-76
2022/04/25 02:53:37;;;;;;;12.03;6.83;;;;;;;15.80;61.29;93748.03;5072651;28;20807;-76
2022/04/25 02:56:05;;;;;;;10.30;6.40;;;;;;;17.04;56.96;93746.38;5052600;28;20424;-76
2022/04/25 02:58:33;;;;;;;13.00;6.33;;;;;;;17.12;56.95;93736.09;5065401;28;20187;-77
2022/04/25 03:00:59;;;;;;;14.60;7.63;;;;;;;17.33;56.71;93731.66;5089932;28;20426;-77
2022/04/25 03:03:26;;;;;;;14.37;6.23;;;;;;;17.22;56.48;93742.47;5090936;28;20942;-76
2022/04/25 03:05:53;;;;;;;11.53;5.83;;;;;;;17.07;57.33;93751.13;5060398;28;20461;-77
2022/04/25 03:08:20;;;;;;;15.90;7.93;;;;;;;17.34;55.77;93751.00;5078608;28;20469;-76
2022/04/25 03:10:46;;;;;;;22.80;7.03;;;;;;;17.21;56.63;93749.63;5066205;28;20424;-77
2022/04/25 03:13:16;;;;;;;17.03;7.60;;;;;;;16.96;57.60;93753.72;5063719;28;20508;-76
2022/04/25 03:15:43;;;;;;;12.80;6.97;;;;;;;16.97;57.35;93751.88;5065399;28;20460;-77
2022/04/25 03:18:11;;;;;;;18.33;7.00;;;;;;;17.18;56.17;93753.56;5072241;28;20433;-76
2022/04/25 03:20:38;;;;;;;13.47;6.30;;;;;;;17.53;55.42;93759.28;5052102;28;20441;-76
2022/04/25 03:23:05;;;;;;;13.20;7.27;;;;;;;17.05;56.82;93761.16;5073193;28;20432;-76
2022/04/25 03:25:31;;;;;;;11.27;6.10;;;;;;;17.09;56.66;93763.03;5066253;28;20453;-77
2022/04/25 03:27:57;;;;;;;14.50;7.47;;;;;;;17.41;55.80;93761.31;5066736;28;20489;-77
2022/04/25 03:30:23;;;;;;;22.20;6.83;;;;;;;17.11;56.26;93762.75;5081717;28;20420;-77
2022/04/25 03:32:49;;;;;;;10.17;6.83;;;;;;;16.82;57.50;93772.88;5070776;28;20175;-77
2022/04/25 03:35:17;;;;;;;11.87;7.07;;;;;;;16.87;57.17;93768.47;5065298;28;20531;-77
2022/04/25 03:37:44;;;;;;;14.93;6.60;;;;;;;16.61;58.10;93771.94;5060119;28;20421;-76
2022/04/25 03:40:10;;;;;;;19.97;7.83;;;;;;;16.62;57.91;93778.81;5067590;28;20428;-77
2022/04/25 03:42:37;;;;;;;9.53;6.33;;;;;;;16.69;57.81;93789.97;5066841;28;20507;-77
2022/04/25 03:45:09;;;;;;;14.40;5.90;;;;;;;16.52;58.23;93785.63;5068766;28;20492;-77
2022/04/25 03:47:35;;;;;;;18.23;6.27;;;;;;;16.71;57.85;93782.59;5075541;28;20420;-77
2022/04/25 03:50:01;;;;;;;9.77;7.20;;;;;;;16.56;58.35;93797.28;5077709;28;20415;-77
2022/04/25 03:52:28;;;;;;;18.10;8.07;;;;;;;16.38;58.93;93795.00;5065149;28;20492;-77
2022/04/25 03:57:37;;;;;;;12.17;7.43;;;;;;;15.60;61.94;93805.81;5077010;28;20934;-76
2022/04/25 04:00:05;;;;;;;14.20;7.10;;;;;;;15.69;61.47;93793.78;5078880;28;20420;-76
2022/04/25 04:02:30;;;;;;;8.60;6.90;;;;;;;16.27;59.77;93788.84;5094884;28;20178;-77
2022/04/25 04:04:56;;;;;;;10.07;5.70;;;;;;;15.64;61.62;93806.13;5076291;28;20523;-76
2022/04/25 04:07:21;;;;;;;15.10;8.67;;;;;;;16.13;60.42;93796.38;5079209;28;20196;-77
2022/04/25 04:09:47;;;;;;;10.90;7.40;;;;;;;15.92;60.69;93805.16;5045978;28;20262;-77
2022/04/25 04:12:18;;;;;;;14.77;8.33;;;;;;;16.20;59.96;93810.19;5083448;28;20174;-76
2022/04/25 04:14:44;;;;;;;8.80;6.93;;;;;;;16.29;59.68;93804.44;5080769;28;20431;-77
2022/04/25 04:17:10;;;;;;;18.73;7.43;;;;;;;16.76;58.22;93816.97;5065620;28;20420;-77
2022/04/25 04:19:37;;;;;;;16.93;8.80;;;;;;;16.98;57.63;93801.03;5080734;28;20596;-77
2022/04/25 04:22:04;;;;;;;14.60;7.47;;;;;;;17.35;55.98;93808.13;5081889;28;20181;-77
2022/04/25 04:24:31;;;;;;;13.13;7.03;;;;;;;17.07;56.73;93811.91;5074616;28;20438;-76
2022/04/25 04:27:04;;;;;;;13.13;7.83;;;;;;;17.16;56.47;93815.69;5083677;28;20424;-77
2022/04/25 04:29:31;;;;;;;19.27;8.50;;;;;;;17.27;56.14;93811.25;5074874;28;20471;-77
2022/04/25 04:32:06;;;;;;;15.60;8.40;;;;;;;17.29;56.17;93812.59;5068968;28;20412;-77
2022/04/25 04:34:33;;;;;;;24.50;8.80;;;;;;;17.69;54.89;93823.63;5074475;28;20489;-77
2022/04/25 04:36:59;;;;;;;11.53;7.77;;;;;;;17.45;55.50;93812.66;5046358;28;20397;-77
2022/04/25 04:39:25;;;;;;;23.03;8.27;;;;;;;17.27;55.86;93814.69;5067481;28;20543;-77
2022/04/25 04:41:50;;;;;;;15.47;8.30;;;;;;;17.43;55.52;93825.34;5082197;28;20419;-77
2022/04/25 04:44:17;;;;;;;15.87;7.70;;;;;;;17.27;56.35;93825.25;5077958;28;20193;-77
2022/04/25 04:46:43;;;;;;;16.33;8.53;;;;;;;17.53;56.04;93825.41;5074222;28;20198;-77
2022/04/25 04:49:09;;;;;;;21.83;7.77;;;;;;;17.76;55.17;93824.19;5072951;28;20507;-78
2022/04/25 04:51:34;;;;;;;18.30;7.60;;;;;;;17.64;55.41;93821.75;5069772;28;20420;-77
2022/04/25 04:54:00;;;;;;;17.03;8.03;;;;;;;18.02;54.27;93825.09;5075309;28;20228;-77
2022/04/25 04:56:32;;;;;;;14.87;8.27;;;;;;;17.84;54.71;93830.81;5083160;28;20166;-77
2022/04/25 04:58:58;;;;;;;11.10;7.27;;;;;;;18.20;54.19;93839.69;5051060;28;20244;-77
2022/04/25 05:01:25;;;;;;;16.03;7.43;;;;;;;18.24;52.56;93827.50;5087917;28;21086;-77
2022/04/25 05:03:51;;;;;;;23.20;8.10;;;;;;;17.73;54.90;93836.06;5074305;28;20427;-77
2022/04/25 05:06:16;;;;;;;18.57;7.60;;;;;;;18.07;53.29;93846.25;5087697;28;20451;-77
2022/04/25 05:08:42;;;;;;;18.90;7.50;;;;;;;18.12;53.51;93838.34;5087196;28;20204;-77
2022/04/25 05:11:11;;;;;;;23.50;7.50;;;;;;;17.61;54.68;93850.56;5084800;28;20175;-77
2022/04/25 05:13:37;;;;;;;19.37;7.00;;;;;;;17.20;56.12;93848.47;5073693;28;20279;-77
2022/04/25 05:16:03;;;;;;;14.17;7.13;;;;;;;17.80;54.64;93861.50;5088040;28;20416;-77
2022/04/25 05:18:33;;;;;;;18.03;8.87;;;;;;;17.78;54.92;93858.31;5080044;28;20217;-77
2022/04/25 05:21:00;;;;;;;22.53;8.40;;;;;;;17.35;55.86;93856.50;5073871;28;20416;-77
2022/04/25 05:23:25;;;;;;;20.47;9.73;;;;;;;17.90;54.74;93856.28;5059911;28;20451;-77
2022/04/25 05:25:51;;;;;;;19.10;6.70;;;;;;;17.55;54.32;93862.97;5069891;28;20460;-77
2022/04/25 05:28:16;;;;;;;24.60;7.50;;;;;;;17.93;53.32;93864.50;5077267;28;20182;-77
2022/04/25 05:30:43;;;;;;;18.03;7.40;;;;;;;17.87;53.86;93867.38;5086095;28;20622;-77
2022/04/25 05:33:09;;;;;;;21.90;9.30;;;;;;;18.42;52.08;93862.50;5089871;28;20190;-77
2022/04/25 05:35:35;;;;;;;20.40;6.93;;;;;;;18.74;50.90;93864.91;5071583;28;20409;-77
2022/04/25 05:38:02;;;;;;;17.80;7.77;;;;;;;18.79;50.91;93864.13;5048823;28;20369;-76
2022/04/25 05:40:27;;;;;;;16.50;8.13;;;;;;;18.42;51.92;93865.97;5068718;28;20420;-77
2022/04/25 05:42:55;;;;;;;13.40;7.27;;;;;;;18.96;50.72;93870.00;5081597;28;20444;-78
2022/04/25 05:45:22;;;;;;;17.93;8.03;;;;;;;19.21;49.90;93865.72;5085849;28;20198;-77
2022/04/25 05:47:49;;;;;;;13.57;7.60;;;;;;;19.08;50.43;93872.38;5075399;28;20414;-77
2022/04/25 05:53:00;;;;;;;22.90;8.00;;;;;;;19.49;49.33;93870.47;5074029;28;20459;-77
2022/04/25 05:55:30;;;;;;;16.63;8.70;;;;;;;19.15;49.20;93877.41;5074288;28;20455;-76
2022/04/25 05:57:58;;;;;;;16.23;7.60;;;;;;;19.64;48.66;93879.47;5073354;28;20443;-76
2022/04/25 06:00:24;;;;;;;18.40;8.60;;;;;;;19.86;47.63;93874.66;5065760;28;20420;-77
2022/04/25 06:02:50;;;;;;;17.40;8.00;;;;;;;20.02;47.45;93888.66;5083543;28;20411;-77
2022/04/25 06:05:16;;;;;;;17.50;8.67;;;;;;;19.91;47.89;93875.69;5070442;28;20452;-77
2022/04/25 06:07:45;;;;;;;16.60;9.43;;;;;;;20.45;47.02;93865.06;5075873;28;20437;-76
2022/04/25 06:10:13;;;;;;;19.10;8.27;;;;;;;20.94;46.03;93867.94;5077355;28;20431;-77
2022/04/25 06:12:40;;;;;;;22.80;7.87;;;;;;;21.28;44.62;93859.91;5097814;28;20476;-77
2022/04/25 06:15:06;;;;;;;16.50;7.57;;;;;;;20.27;46.52;93855.06;5071700;28;20417;-77
2022/04/25 06:17:32;;;;;;;20.30;7.93;;;;;;;20.81;45.56;93846.22;5069702;28;20408;-77
2022/04/25 06:19:57;;;;;;;14.43;7.23;;;;;;;21.12;45.15;93845.19;5065898;28;20437;-77
2022/04/25 06:22:23;;;;;;;13.57;6.37;;;;;;;21.08;44.99;93842.28;5073599;28;20181;-77
2022/04/25 06:24:48;;;;;;;17.43;8.00;;;;;;;21.15;44.92;93837.44;5072062;28;20588;-77
2022/04/25 06:27:14;;;;;;;25.80;9.80;;;;;;;21.38;43.88;93837.72;5076026;28;20234;-77
2022/04/25 06:29:42;;;;;;;13.00;8.07;;;;;;;21.11;44.14;93841.72;5066301;28;20221;-77
2022/04/25 06:32:08;;;;;;;16.17;6.97;;;;;;;21.59;43.54;93839.16;5051004;28;20425;-77
2022/04/25 06:34:34;;;;;;;14.90;7.40;;;;;;;21.92;43.19;93841.19;5076478;28;20432;-77
2022/04/25 06:36:59;;;;;;;15.67;6.73;;;;;;;21.97;42.84;93844.56;5082377;28;20411;-77
2022/04/25 06:39:25;;;;;;;21.20;6.90;;;;;;;21.58;43.15;93839.44;5066564;28;20170;-76
2022/04/25 06:41:50;;;;;;;25.30;6.83;;;;;;;20.93;44.75;93847.75;5092892;28;20177;-77
2022/04/25 06:44:16;;;;;;;19.67;7.20;;;;;;;20.98;44.53;93848.50;5089766;28;20190;-76
2022/04/25 06:46:43;;;;;;;16.80;7.93;;;;;;;20.54;45.73;93846.66;5077450;28;20641;-76
2022/04/25 06:49:23;;;;;;;17.40;7.30;;;;;;;20.92;44.83;93846.13;5079488;28;20182;-76
2022/04/25 06:51:58;;;;;;;17.17;6.07;;;;;;;21.24;43.63;93854.38;5064998;28;20411;-76
2022/04/25 06:54:25;;;;;;;12.60;6.30;;;;;;;21.52;42.82;93844.00;5065509;28;20482;-77
2022/04/25 06:56:52;;;;;;;17.53;7.03;;;;;;;21.68;42.61;93843.84;5071897;28;20434;-77
2022/04/25 06:59:19;;;;;;;14.80;5.57;;;;;;;22.14;41.49;93844.09;5070115;28;20512;-77
2022/04/25 07:01:45;;;;;;;13.13;7.30;;;;;;;22.31;41.38;93846.31;5079182;28;20457;-76
2022/04/25 07:04:11;;;;;;;17.63;5.03;;;;;;;22.00;42.37;93843.97;5084112;28;20505;-76
2022/04/25 07:06:38;;;;;;;14.20;5.10;;;;;;;22.07;41.98;93846.31;5084823;28;20566;-77
2022/04/25 07:09:04;;;;;;;20.37;6.80;;;;;;;22.74;40.19;93846.19;5082412;28;20462;-77
2022/04/25 07:11:30;;;;;;;13.50;6.40;;;;;;;22.94;39.67;93844.31;5067063;28;20420;-77
2022/04/25 07:13:55;;;;;;;8.53;5.30;;;;;;;23.05;39.52;93843.09;5071273;28;20453;-77
2022/04/25 07:16:20;;;;;;;17.00;5.70;;;;;;;23.40;38.58;93846.22;5065311;28;20170;-77
2022/04/25 07:18:46;;;;;;;11.97;6.10;;;;;;;23.38;39.13;93849.19;5074605;28;20181;-77
2022/04/25 07:29:34;;;;;;;16.37;5.03;;;;;;;23.14;38.87;93830.63;5065385;28;20443;-76
2022/04/25 07:32:00;;;;;;;11.23;4.70;;;;;;;23.75;37.72;93819.94;5070264;28;20439;-77
2022/04/25 07:34:25;;;;;;;12.87;5.00;;;;;;;24.01;37.02;93832.81;5083134;28;20175;-76
2022/04/25 07:36:53;;;;;;;17.90;4.80;;;;;;;23.43;37.36;93839.50;5064712;28;20238;-76
2022/04/25 07:39:19;;;;;;;18.53;5.60;;;;;;;24.24;35.80;93829.13;5046483;28;20179;-77
2022/04/25 07:41:45;;;;;;;18.63;5.17;;;;;;;23.72;36.31;93831.22;5065225;28;20431;-77
2022/04/25 07:44:11;;;;;;;22.83;5.37;;;;;;;24.13;35.49;93835.75;5067627;28;20464;-76
2022/04/25 07:46:38;;;;;;;17.40;4.20;;;;;;;23.93;34.63;93827.06;5078219;28;20450;-77
2022/04/25 07:49:04;;;;;;;14.17;5.60;;;;;;;23.49;35.58;93828.44;5065842;28;20220;-76
2022/04/25 07:51:29;;;;;;;14.50;4.37;;;;;;;23.94;34.59;93815.31;5084559;28;20422;-76
2022/04/25 07:53:55;;;;;;;22.37;5.17;;;;;;;24.65;32.71;93814.88;5065728;28;20229;-76
2022/04/25 07:56:20;;;;;;;13.87;5.07;;;;;;;24.81;31.29;93806.47;5079317;28;20181;-76
2022/04/25 07:58:46;;;;;;;16.10;3.70;;;;;;;25.12;30.52;93804.63;5084855;28;20198;-76
2022/04/25 08:01:11;;;;;;;17.73;5.03;;;;;;;24.63;31.67;93810.94;5072425;28;20246;-76
2022/04/25 08:03:37;;;;;;;16.07;3.17;;;;;;;24.50;29.95;93799.91;5072300;28;20221;-76
2022/04/25 08:06:04;;;;;;;15.03;3.33;;;;;;;24.73;28.59;93803.44;5063805;28;20201;-76
2022/04/25 08:08:30;;;;;;;12.93;4.13;;;;;;;24.61;28.64;93802.41;5075712;28;20185;-76
2022/04/25 08:10:55;;;;;;;21.23;4.23;;;;;;;24.20;29.04;93793.38;5083663;28;20435;-76
2022/04/25 08:18:49;;;;;;;17.33;3.97;;;;;;;25.25;27.74;93794.16;5069784;28;20462;-76
2022/04/25 08:21:15;;;;;;;8.37;3.47;;;;;;;25.29;27.94;93789.78;5064361;28;20436;-76
2022/04/25 08:23:41;;;;;;;15.57;3.70;;;;;;;24.39;28.85;93784.41;5083081;28;20420;-77
2022/04/25 08:26:06;;;;;;;25.43;4.60;;;;;;;25.28;27.86;93794.34;5079385;28;20308;-75
2022/04/25 08:28:32;;;;;;;14.40;4.47;;;;;;;25.52;27.46;93783.25;5078349;28;20455;-77
2022/04/25 08:30:57;;;;;;;16.27;3.30;;;;;;;25.20;27.58;93775.53;5049506;28;20238;-77
2022/04/25 08:33:23;;;;;;;12.73;3.23;;;;;;;25.56;26.58;93788.00;5055710;28;20214;-76
2022/04/25 08:35:49;;;;;;;18.33;3.33;;;;;;;25.42;26.74;93775.50;5064636;28;20169;-76
2022/04/25 08:38:14;;;;;;;16.50;4.40;;;;;;;25.61;26.14;93796.69;5073079;28;20442;-76
2022/04/25 08:40:40;;;;;;;16.93;5.40;;;;;;;25.49;25.83;93788.44;5081025;28;20179;-77
2022/04/25 08:43:06;;;;;;;11.70;3.63;;;;;;;26.30;24.69;93788.03;5063996;28;20250;-76
2022/04/25 08:45:32;;;;;;;15.13;3.47;;;;;;;25.67;27.34;93787.41;5076417;28;20689;-77
2022/04/25 08:47:59;;;;;;;17.10;3.83;;;;;;;26.38;25.81;93791.03;5087316;28;20507;-76
2022/04/25 08:50:29;;;;;;;19.20;4.23;;;;;;;26.53;25.81;93771.78;5080145;28;20926;-76
2022/04/25 08:52:56;;;;;;;11.27;3.53;;;;;;;26.70;25.40;93786.34;5066950;28;20565;-76
2022/04/25 08:55:22;;;;;;;15.80;3.30;;;;;;;26.37;24.99;93781.41;5070262;28;20871;-77
2022/04/25 08:57:50;;;;;;;13.77;2.90;;;;;;;26.70;24.82;93780.97;5076222;28;20417;-76
2022/04/25 09:00:16;;;;;;;15.37;3.43;;;;;;;26.33;25.72;93761.69;5045744;28;20947;-76
2022/04/25 09:02:44;;;;;;;10.40;2.67;;;;;;;26.47;24.81;93781.09;5077897;28;20441;-76
2022/04/25 09:05:11;;;;;;;13.93;3.30;;;;;;;27.59;23.97;93779.34;5081021;28;20198;-76
2022/04/25 09:07:40;;;;;;;10.00;3.07;;;;;;;26.88;25.18;93771.78;5081711;28;20436;-76
2022/04/25 09:10:08;;;;;;;10.30;2.83;;;;;;;26.99;24.48;93770.31;5063458;28;20432;-76
2022/04/25 09:12:38;;;;;;;14.50;3.30;;;;;;;26.34;25.22;93765.97;5077736;28;20965;-76
2022/04/25 09:15:08;;;;;;;21.77;3.97;;;;;;;27.60;23.74;93774.75;5064667;28;20414;-77
2022/04/25 09:17:37;;;;;;;17.17;2.30;;;;;;;26.77;24.46;93771.34;5045764;28;20451;-77
2022/04/25 09:20:03;;;;;;;18.30;3.50;;;;;;;27.40;24.09;93765.50;5080010;28;20416;-77
2022/04/25 09:22:34;;;;;;;6.27;2.30;;;;;;;27.32;22.99;93763.63;5071431;28;20444;-77
2022/04/25 09:25:07;;;;;;;11.03;2.93;;;;;;;26.88;23.58;93761.03;5065514;28;20455;-77
2022/04/25 09:27:33;;;;;;;14.73;2.30;;;;;;;27.17;23.81;93762.25;5060524;28;20438;-77
2022/04/25 09:30:14;;;;;;;9.13;2.40;;;;;;;27.50;22.99;93759.00;5086024;28;20447;-77
2022/04/25 09:32:40;;;;;;;14.07;3.20;;;;;;;27.23;22.13;93756.38;5084175;28;20181;-76
2022/04/25 09:35:35;;;;;;;14.40;2.90;;;;;;;27.80;21.78;93743.66;5064002;28;20455;-76
2022/04/25 09:38:03;;;;;;;15.93;3.90;;;;;;;27.33;22.75;93765.22;5077550;28;20210;-76
2022/04/25 09:40:34;;;;;;;9.83;2.40;;;;;;;27.63;22.18;93741.84;5074243;28;20451;-76
2022/04/25 09:43:14;;;;;;;12.47;3.50;;;;;;;27.38;22.19;93738.97;5055011;28;20528;-77
2022/04/25 09:45:42;;;;;;;10.90;2.83;;;;;;;26.95;22.17;93747.91;5064270;28;20514;-77
2022/04/25 09:48:18;;;;;;;10.30;2.40;;;;;;;27.16;21.45;93752.59;5077306;28;20474;-77
2022/04/25 09:51:01;;;;;;;11.03;3.37;;;;;;;28.23;19.35;93748.78;5071876;28;20425;-77
2022/04/25 09:54:01;;;;;;;14.00;2.40;;;;;;;27.43;21.73;93744.16;5091420;28;20553;-76
2022/04/25 09:56:30;;;;;;;20.20;4.00;;;;;;;27.78;21.38;93743.97;5029831;28;20524;-77
2022/04/25 09:59:06;;;;;;;12.60;2.60;;;;;;;28.16;20.52;93751.19;5079696;28;20423;-77
2022/04/25 10:01:37;;;;;;;12.27;2.63;;;;;;;29.20;19.88;93740.66;5061168;28;20486;-77
2022/04/25 10:04:05;;;;;;;6.90;3.27;;;;;;;28.45;20.93;93728.03;5064949;28;20978;-77
2022/04/25 10:06:34;;;;;;;11.17;2.80;;;;;;;28.44;20.52;93753.38;5085733;28;20993;-77
2022/04/25 10:09:02;;;;;;;8.40;2.10;;;;;;;27.85;20.48;93746.94;5085401;28;20810;-77
2022/04/25 10:11:33;;;;;;;6.37;3.17;;;;;;;28.26;20.11;93750.03;5077129;28;20417;-77
2022/04/25 10:14:00;;;;;;;6.60;2.60;;;;;;;28.06;20.28;93740.84;5076214;28;20430;-77
2022/04/25 10:16:27;;;;;;;5.80;2.40;;;;;;;28.81;19.39;93740.06;5081563;28;20504;-77
2022/04/25 10:18:53;;;;;;;6.13;2.40;;;;;;;29.16;19.14;93737.06;5078006;28;20435;-77
2022/04/25 10:21:19;;;;;;;12.60;2.20;;;;;;;28.74;19.19;93734.44;5083882;28;20485;-77
2022/04/25 10:23:45;;;;;;;18.07;3.57;;;;;;;28.52;19.41;93743.69;5052020;28;20435;-77
2022/04/25 10:26:11;;;;;;;10.93;2.10;;;;;;;28.01;19.67;93730.25;5061704;28;20473;-77
2022/04/25 10:28:50;;;;;;;9.43;2.07;;;;;;;28.40;19.50;93728.22;5084806;28;20345;-77
2022/04/25 10:31:41;;;;;;;8.40;2.80;;;;;;;28.32;20.00;93737.94;5065545;28;20244;-78
2022/04/25 10:34:07;;;;;;;11.87;2.43;;;;;;;29.51;18.27;93723.94;5066915;28;20438;-78
2022/04/25 10:36:39;;;;;;;9.97;2.10;;;;;;;28.92;18.27;93727.75;5074722;28;20419;-78
2022/04/25 10:39:20;;;;;;;4.73;1.07;;;;;;;28.42;18.22;93726.00;5076359;28;20448;-77
2022/04/25 10:44:47;;;;;;;8.90;2.30;;;;;;;29.74;18.05;93721.59;5077243;28;20456;-77
2022/04/25 10:47:25;;;;;;;10.27;2.57;;;;;;;29.52;18.36;93735.50;5081337;28;21088;-78
2022/04/25 10:49:53;;;;;;;14.27;3.00;;;;;;;29.66;18.76;93722.47;5052897;28;20427;-78
2022/04/25 10:52:31;;;;;;;12.00;2.40;;;;;;;29.81;18.98;93722.97;5079356;28;20418;-78
2022/04/25 10:55:09;;;;;;;6.90;2.57;;;;;;;29.71;18.16;93726.84;5072296;28;20498;-78
2022/04/25 10:57:35;;;;;;;9.00;2.17;;;;;;;29.60;17.12;93702.28;5066719;28;20416;-78
2022/04/25 11:00:00;;;;;;;8.60;2.23;;;;;;;29.96;16.88;93730.38;5074109;28;20443;-78
2022/04/25 11:02:28;;;;;;;2.60;1.43;;;;;;;30.01;16.36;93730.13;5089114;28;20556;-78
2022/04/25 11:05:11;;;;;;;8.30;2.60;;;;;;;30.21;16.43;93727.63;5065023;28;20213;-77
2022/04/25 11:07:41;;;;;;;6.73;2.13;;;;;;;31.10;16.57;93723.91;5072856;28;20419;-78
2022/04/25 11:10:28;;;;;;;9.13;2.03;;;;;;;28.94;17.37;93730.91;5065309;28;20450;-78
2022/04/25 11:12:58;;;;;;;7.77;2.27;;;;;;;29.64;16.91;93727.44;5065826;28;20471;-78
2022/04/25 11:15:45;;;;;;;14.53;3.20;;;;;;;30.01;16.54;93740.91;5066319;28;20433;-78
2022/04/25 11:18:33;;;;;;;8.83;2.33;;;;;;;29.69;16.46;93724.53;5077705;28;20512;-78
2022/04/25 11:21:16;;;;;;;10.43;1.73;;;;;;;29.19;17.02;93729.06;5065788;28;20488;-78
2022/04/25 11:23:44;;;;;;;12.90;2.97;;;;;;;30.21;16.01;93727.63;5068267;28;20410;-78
2022/04/25 11:26:25;;;;;;;13.67;1.47;;;;;;;29.55;16.45;93740.25;5074266;28;20451;-78
2022/04/25 11:29:03;;;;;;;8.10;2.33;;;;;;;28.71;16.65;93743.97;5080113;28;20450;-79
2022/04/25 11:31:33;;;;;;;13.07;2.33;;;;;;;29.67;16.26;93734.88;5072106;28;20409;-78
2022/04/25 11:34:01;;;;;;;9.33;1.60;;;;;;;29.34;15.91;93740.34;5068494;28;20441;-78
2022/04/25 11:36:29;;;;;;;13.13;2.00;;;;;;;30.38;15.00;93737.38;5082881;28;20420;-78
2022/04/25 11:41:40;;;;;;;11.47;2.03;;;;;;;30.50;15.04;93732.72;5066158;28;20416;-78
2022/04/25 11:44:06;;;;;;;6.10;1.90;;;;;;;31.65;14.32;93733.03;5078697;28;20440;-78
2022/04/25 11:46:34;;;;;;;6.37;1.80;;;;;;;31.59;14.73;93734.44;5067095;28;20527;-77
2022/04/25 11:49:00;;;;;;;10.63;2.43;;;;;;;30.65;15.79;93725.03;5073307;28;20435;-77
2022/04/25 11:51:31;;;;;;;7.07;2.13;;;;;;;30.89;14.83;93719.50;5084214;28;20420;-77
2022/04/25 11:54:00;;;;;;;8.23;1.53;;;;;;;30.04;14.76;93721.34;5066058;28;20498;-76
2022/04/25 11:56:27;;;;;;;5.40;1.70;;;;;;;29.89;13.95;93722.06;5070300;28;20420;-76
2022/04/25 11:58:54;;;;;;;8.33;1.47;;;;;;;29.20;15.61;93719.09;5062912;28;20478;-77